sensor_id;sensor_type;location;lat;lon;timestamp;temperature;humidity
75985;DHT22;65033;44.660;37.758;2023-03-20T00:00:13;10.00;76.14
75985;DHT22;65033;44.660;37.758;2023-03-20T00:01:21;10.01;76.11
75985;DHT22;65033;44.660;37.758;2023-03-20T00:02:26;10.00;76.02
75985;DHT22;65033;44.660;37.758;2023-03-20T00:03:29;9.99;75.92
75985;DHT22;65033;44.660;37.758;2023-03-20T00:04:32;10.00;75.91
75985;DHT22;65033;44.660;37.758;2023-03-20T00:05:37;9.97;75.99
75985;DHT22;65033;44.660;37.758;2023-03-20T00:06:41;9.96;76.02
75985;DHT22;65033;44.660;37.758;2023-03-20T00:07:44;9.93;76.14
75985;DHT22;65033;44.660;37.758;2023-03-20T00:08:49;9.90;76.29
75985;DHT22;65033;44.660;37.758;2023-03-20T00:09:53;9.88;76.44
75985;DHT22;65033;44.660;37.758;2023-03-20T00:10:59;9.89;76.43
75985;DHT22;65033;44.660;37.758;2023-03-20T00:12:03;9.90;76.43
75985;DHT22;65033;44.660;37.758;2023-03-20T00:13:11;9.88;76.52
75985;DHT22;65033;44.660;37.758;2023-03-20T00:14:18;9.88;76.57
75985;DHT22;65033;44.660;37.758;2023-03-20T00:15:27;9.90;76.61
75985;DHT22;65033;44.660;37.758;2023-03-20T00:16:34;9.90;76.58
75985;DHT22;65033;44.660;37.758;2023-03-20T00:17:38;9.92;76.53
75985;DHT22;65033;44.660;37.758;2023-03-20T00:18:41;9.89;76.75
75985;DHT22;65033;44.660;37.758;2023-03-20T00:19:44;9.88;76.72
75985;DHT22;65033;44.660;37.758;2023-03-20T00:20:50;9.88;76.73
75985;DHT22;65033;44.660;37.758;2023-03-20T00:21:54;9.89;76.76
75985;DHT22;65033;44.660;37.758;2023-03-20T00:22:57;9.89;76.74
75985;DHT22;65033;44.660;37.758;2023-03-20T00:24:02;9.90;76.73
75985;DHT22;65033;44.660;37.758;2023-03-20T00:25:06;9.92;76.77
75985;DHT22;65033;44.660;37.758;2023-03-20T00:26:11;9.92;76.69
75985;DHT22;65033;44.660;37.758;2023-03-20T00:27:16;9.93;76.64
75985;DHT22;65033;44.660;37.758;2023-03-20T00:28:38;9.94;76.53
75985;DHT22;65033;44.660;37.758;2023-03-20T00:29:44;9.93;76.50
75985;DHT22;65033;44.660;37.758;2023-03-20T00:30:47;9.92;76.44
75985;DHT22;65033;44.660;37.758;2023-03-20T00:31:51;9.92;76.52
75985;DHT22;65033;44.660;37.758;2023-03-20T00:32:56;9.92;76.54
75985;DHT22;65033;44.660;37.758;2023-03-20T00:34:02;9.92;76.58
75985;DHT22;65033;44.660;37.758;2023-03-20T00:35:22;9.92;76.64
75985;DHT22;65033;44.660;37.758;2023-03-20T00:36:28;9.91;76.73
75985;DHT22;65033;44.660;37.758;2023-03-20T00:37:31;9.91;76.69
75985;DHT22;65033;44.660;37.758;2023-03-20T00:38:34;9.92;76.69
75985;DHT22;65033;44.660;37.758;2023-03-20T00:39:37;9.91;76.64
75985;DHT22;65033;44.660;37.758;2023-03-20T00:40:41;9.89;76.76
75985;DHT22;65033;44.660;37.758;2023-03-20T00:41:48;9.84;77.00
75985;DHT22;65033;44.660;37.758;2023-03-20T00:42:57;9.79;77.30
75985;DHT22;65033;44.660;37.758;2023-03-20T00:44:03;9.79;77.32
75985;DHT22;65033;44.660;37.758;2023-03-20T00:45:11;9.78;77.37
75985;DHT22;65033;44.660;37.758;2023-03-20T00:46:15;9.74;77.60
75985;DHT22;65033;44.660;37.758;2023-03-20T00:47:20;9.72;77.63
75985;DHT22;65033;44.660;37.758;2023-03-20T00:48:23;9.74;77.57
75985;DHT22;65033;44.660;37.758;2023-03-20T00:49:28;9.74;77.50
75985;DHT22;65033;44.660;37.758;2023-03-20T00:50:32;9.75;77.60
75985;DHT22;65033;44.660;37.758;2023-03-20T00:51:37;9.75;77.62
75985;DHT22;65033;44.660;37.758;2023-03-20T00:52:41;9.76;77.56
75985;DHT22;65033;44.660;37.758;2023-03-20T00:53:46;9.70;77.79
75985;DHT22;65033;44.660;37.758;2023-03-20T00:54:49;9.69;77.86
75985;DHT22;65033;44.660;37.758;2023-03-20T00:55:53;9.69;77.82
75985;DHT22;65033;44.660;37.758;2023-03-20T00:56:59;9.70;77.84
75985;DHT22;65033;44.660;37.758;2023-03-20T00:58:03;9.70;77.91
75985;DHT22;65033;44.660;37.758;2023-03-20T00:59:14;9.69;77.91
75985;DHT22;65033;44.660;37.758;2023-03-20T01:00:24;9.71;77.88
75985;DHT22;65033;44.660;37.758;2023-03-20T01:01:30;9.72;77.82
75985;DHT22;65033;44.660;37.758;2023-03-20T01:02:34;9.74;77.82
75985;DHT22;65033;44.660;37.758;2023-03-20T01:03:37;9.70;77.89
75985;DHT22;65033;44.660;37.758;2023-03-20T01:04:42;9.70;77.92
75985;DHT22;65033;44.660;37.758;2023-03-20T01:05:46;9.71;77.85
75985;DHT22;65033;44.660;37.758;2023-03-20T01:06:51;9.75;77.75
75985;DHT22;65033;44.660;37.758;2023-03-20T01:07:54;9.72;77.72
75985;DHT22;65033;44.660;37.758;2023-03-20T01:08:58;9.75;77.73
75985;DHT22;65033;44.660;37.758;2023-03-20T01:10:04;9.76;77.64
75985;DHT22;65033;44.660;37.758;2023-03-20T01:11:10;9.78;77.54
75985;DHT22;65033;44.660;37.758;2023-03-20T01:12:16;9.74;77.73
75985;DHT22;65033;44.660;37.758;2023-03-20T01:13:19;9.72;77.76
75985;DHT22;65033;44.660;37.758;2023-03-20T01:14:23;9.70;77.79
75985;DHT22;65033;44.660;37.758;2023-03-20T01:15:31;9.71;77.79
75985;DHT22;65033;44.660;37.758;2023-03-20T01:16:35;9.72;77.75
75985;DHT22;65033;44.660;37.758;2023-03-20T01:17:38;9.72;77.80
75985;DHT22;65033;44.660;37.758;2023-03-20T01:18:41;9.71;77.85
75985;DHT22;65033;44.660;37.758;2023-03-20T01:19:44;9.72;77.80
75985;DHT22;65033;44.660;37.758;2023-03-20T01:20:48;9.72;77.76
75985;DHT22;65033;44.660;37.758;2023-03-20T01:21:53;9.71;77.82
75985;DHT22;65033;44.660;37.758;2023-03-20T01:22:56;9.71;77.79
75985;DHT22;65033;44.660;37.758;2023-03-20T01:23:59;9.72;77.76
75985;DHT22;65033;44.660;37.758;2023-03-20T01:25:03;9.71;77.69
75985;DHT22;65033;44.660;37.758;2023-03-20T01:26:19;9.72;77.66
75985;DHT22;65033;44.660;37.758;2023-03-20T01:27:24;9.74;77.64
75985;DHT22;65033;44.660;37.758;2023-03-20T01:28:29;9.72;77.65
75985;DHT22;65033;44.660;37.758;2023-03-20T01:29:33;9.68;77.93
75985;DHT22;65033;44.660;37.758;2023-03-20T01:30:36;9.67;77.96
75985;DHT22;65033;44.660;37.758;2023-03-20T01:31:40;9.67;78.05
75985;DHT22;65033;44.660;37.758;2023-03-20T01:32:44;9.68;78.11
75985;DHT22;65033;44.660;37.758;2023-03-20T01:33:49;9.68;78.18
75985;DHT22;65033;44.660;37.758;2023-03-20T01:34:53;9.69;78.21
75985;DHT22;65033;44.660;37.758;2023-03-20T01:35:56;9.68;78.20
75985;DHT22;65033;44.660;37.758;2023-03-20T01:37:02;9.70;78.18
75985;DHT22;65033;44.660;37.758;2023-03-20T01:38:11;9.71;78.13
75985;DHT22;65033;44.660;37.758;2023-03-20T01:39:15;9.72;78.10
75985;DHT22;65033;44.660;37.758;2023-03-20T01:40:28;9.74;78.13
75985;DHT22;65033;44.660;37.758;2023-03-20T01:41:33;9.76;78.08
75985;DHT22;65033;44.660;37.758;2023-03-20T01:42:37;9.76;78.08
75985;DHT22;65033;44.660;37.758;2023-03-20T01:43:40;9.77;78.08
75985;DHT22;65033;44.660;37.758;2023-03-20T01:44:45;9.77;78.08
75985;DHT22;65033;44.660;37.758;2023-03-20T01:45:55;9.77;78.17
75985;DHT22;65033;44.660;37.758;2023-03-20T01:47:01;9.77;78.19
75985;DHT22;65033;44.660;37.758;2023-03-20T01:48:14;9.77;78.22
75985;DHT22;65033;44.660;37.758;2023-03-20T01:50:58;9.78;78.30
75985;DHT22;65033;44.660;37.758;2023-03-20T01:52:03;9.79;78.42
75985;DHT22;65033;44.660;37.758;2023-03-20T01:53:11;9.79;78.43
75985;DHT22;65033;44.660;37.758;2023-03-20T01:54:23;9.79;78.47
75985;DHT22;65033;44.660;37.758;2023-03-20T01:55:34;9.79;78.42
75985;DHT22;65033;44.660;37.758;2023-03-20T01:56:42;9.79;78.34
75985;DHT22;65033;44.660;37.758;2023-03-20T01:57:46;9.79;78.31
75985;DHT22;65033;44.660;37.758;2023-03-20T01:58:54;9.77;78.31
75985;DHT22;65033;44.660;37.758;2023-03-20T02:00:03;9.77;78.43
75985;DHT22;65033;44.660;37.758;2023-03-20T02:01:16;9.77;78.39
75985;DHT22;65033;44.660;37.758;2023-03-20T02:02:25;9.75;78.54
75985;DHT22;65033;44.660;37.758;2023-03-20T02:03:31;9.75;78.54
75985;DHT22;65033;44.660;37.758;2023-03-20T02:04:58;9.71;78.64
75985;DHT22;65033;44.660;37.758;2023-03-20T02:06:05;9.71;78.74
75985;DHT22;65033;44.660;37.758;2023-03-20T02:07:37;9.71;78.83
75985;DHT22;65033;44.660;37.758;2023-03-20T02:08:46;9.70;78.93
75985;DHT22;65033;44.660;37.758;2023-03-20T02:09:50;9.69;78.92
75985;DHT22;65033;44.660;37.758;2023-03-20T02:11:01;9.67;78.98
75985;DHT22;65033;44.660;37.758;2023-03-20T02:12:06;9.67;79.06
75985;DHT22;65033;44.660;37.758;2023-03-20T02:13:10;9.66;79.02
75985;DHT22;65033;44.660;37.758;2023-03-20T02:14:20;9.68;79.00
75985;DHT22;65033;44.660;37.758;2023-03-20T02:15:32;9.69;78.90
75985;DHT22;65033;44.660;37.758;2023-03-20T02:16:48;9.69;78.97
75985;DHT22;65033;44.660;37.758;2023-03-20T02:18:03;9.70;78.95
75985;DHT22;65033;44.660;37.758;2023-03-20T02:19:16;9.69;78.93
75985;DHT22;65033;44.660;37.758;2023-03-20T02:20:33;9.67;79.04
75985;DHT22;65033;44.660;37.758;2023-03-20T02:24:05;9.66;79.01
75985;DHT22;65033;44.660;37.758;2023-03-20T02:25:58;9.66;79.05
75985;DHT22;65033;44.660;37.758;2023-03-20T02:27:08;9.64;79.10
75985;DHT22;65033;44.660;37.758;2023-03-20T02:28:50;9.62;79.21
75985;DHT22;65033;44.660;37.758;2023-03-20T02:32:11;9.59;79.38
75985;DHT22;65033;44.660;37.758;2023-03-20T02:33:58;9.57;79.49
75985;DHT22;65033;44.660;37.758;2023-03-20T02:35:34;9.55;79.45
75985;DHT22;65033;44.660;37.758;2023-03-20T02:38:56;9.51;79.62
75985;DHT22;65033;44.660;37.758;2023-03-20T02:40:11;9.52;79.70
75985;DHT22;65033;44.660;37.758;2023-03-20T02:41:23;9.51;79.75
75985;DHT22;65033;44.660;37.758;2023-03-20T02:42:33;9.52;79.75
75985;DHT22;65033;44.660;37.758;2023-03-20T02:43:44;9.53;79.72
75985;DHT22;65033;44.660;37.758;2023-03-20T02:44:58;9.54;79.74
75985;DHT22;65033;44.660;37.758;2023-03-20T02:46:11;9.54;79.76
75985;DHT22;65033;44.660;37.758;2023-03-20T02:47:21;9.55;79.84
75985;DHT22;65033;44.660;37.758;2023-03-20T02:48:37;9.57;79.81
75985;DHT22;65033;44.660;37.758;2023-03-20T02:49:53;9.59;79.83
75985;DHT22;65033;44.660;37.758;2023-03-20T02:51:03;9.57;79.82
75985;DHT22;65033;44.660;37.758;2023-03-20T02:52:16;9.60;79.79
75985;DHT22;65033;44.660;37.758;2023-03-20T02:53:41;9.59;79.76
75985;DHT22;65033;44.660;37.758;2023-03-20T02:54:54;9.62;79.66
75985;DHT22;65033;44.660;37.758;2023-03-20T02:56:05;9.63;79.65
75985;DHT22;65033;44.660;37.758;2023-03-20T02:57:18;9.63;79.57
75985;DHT22;65033;44.660;37.758;2023-03-20T02:58:27;9.63;79.52
75985;DHT22;65033;44.660;37.758;2023-03-20T02:59:40;9.63;79.46
75985;DHT22;65033;44.660;37.758;2023-03-20T03:00:49;9.62;79.43
75985;DHT22;65033;44.660;37.758;2023-03-20T03:02:00;9.63;79.34
75985;DHT22;65033;44.660;37.758;2023-03-20T03:03:10;9.64;79.22
75985;DHT22;65033;44.660;37.758;2023-03-20T03:04:17;9.63;79.24
75985;DHT22;65033;44.660;37.758;2023-03-20T03:05:22;9.64;79.22
75985;DHT22;65033;44.660;37.758;2023-03-20T03:06:29;9.64;79.05
75985;DHT22;65033;44.660;37.758;2023-03-20T03:07:34;9.65;79.01
75985;DHT22;65033;44.660;37.758;2023-03-20T03:08:44;9.66;78.95
75985;DHT22;65033;44.660;37.758;2023-03-20T03:09:52;9.66;78.88
75985;DHT22;65033;44.660;37.758;2023-03-20T03:11:02;9.66;78.88
75985;DHT22;65033;44.660;37.758;2023-03-20T03:12:10;9.66;78.87
75985;DHT22;65033;44.660;37.758;2023-03-20T03:13:18;9.69;78.78
75985;DHT22;65033;44.660;37.758;2023-03-20T03:14:31;9.68;78.79
75985;DHT22;65033;44.660;37.758;2023-03-20T03:15:39;9.69;78.72
75985;DHT22;65033;44.660;37.758;2023-03-20T03:16:45;9.71;78.64
75985;DHT22;65033;44.660;37.758;2023-03-20T03:17:50;9.69;78.50
75985;DHT22;65033;44.660;37.758;2023-03-20T03:19:01;9.71;78.50
75985;DHT22;65033;44.660;37.758;2023-03-20T03:20:13;9.75;78.36
75985;DHT22;65033;44.660;37.758;2023-03-20T03:21:20;9.77;78.28
75985;DHT22;65033;44.660;37.758;2023-03-20T03:22:25;9.81;78.19
75985;DHT22;65033;44.660;37.758;2023-03-20T03:23:30;9.83;78.11
75985;DHT22;65033;44.660;37.758;2023-03-20T03:24:37;9.89;77.95
75985;DHT22;65033;44.660;37.758;2023-03-20T03:25:48;9.90;77.76
75985;DHT22;65033;44.660;37.758;2023-03-20T03:26:55;9.93;77.65
75985;DHT22;65033;44.660;37.758;2023-03-20T03:28:02;9.91;77.63
75985;DHT22;65033;44.660;37.758;2023-03-20T03:29:12;9.89;77.64
75985;DHT22;65033;44.660;37.758;2023-03-20T03:30:23;9.80;77.94
75985;DHT22;65033;44.660;37.758;2023-03-20T03:31:30;10.60;95.04
75985;DHT22;65033;44.660;37.758;2023-03-20T03:32:36;11.72;104.69
75985;DHT22;65033;44.660;37.758;2023-03-20T03:33:45;11.58;76.96
75985;DHT22;65033;44.660;37.758;2023-03-20T03:34:50;11.53;71.84
75985;DHT22;65033;44.660;37.758;2023-03-20T03:36:03;11.41;71.59
75985;DHT22;65033;44.660;37.758;2023-03-20T03:37:13;11.19;71.72
75985;DHT22;65033;44.660;37.758;2023-03-20T03:38:25;10.98;72.59
75985;DHT22;65033;44.660;37.758;2023-03-20T03:39:40;10.75;73.55
75985;DHT22;65033;44.660;37.758;2023-03-20T03:40:51;10.58;74.38
75985;DHT22;65033;44.660;37.758;2023-03-20T03:42:04;10.49;74.66
75985;DHT22;65033;44.660;37.758;2023-03-20T03:43:13;10.37;75.39
75985;DHT22;65033;44.660;37.758;2023-03-20T03:44:22;10.22;75.93
75985;DHT22;65033;44.660;37.758;2023-03-20T03:45:31;10.12;76.44
75985;DHT22;65033;44.660;37.758;2023-03-20T03:46:40;10.04;76.76
75985;DHT22;65033;44.660;37.758;2023-03-20T03:47:49;10.00;76.79
75985;DHT22;65033;44.660;37.758;2023-03-20T03:48:56;9.99;76.90
75985;DHT22;65033;44.660;37.758;2023-03-20T03:50:02;10.01;76.89
75985;DHT22;65033;44.660;37.758;2023-03-20T03:51:10;9.96;77.12
75985;DHT22;65033;44.660;37.758;2023-03-20T03:52:28;9.90;77.45
75985;DHT22;65033;44.660;37.758;2023-03-20T03:53:36;9.85;77.70
75985;DHT22;65033;44.660;37.758;2023-03-20T03:54:46;9.81;77.99
75985;DHT22;65033;44.660;37.758;2023-03-20T03:56:05;9.82;78.12
75985;DHT22;65033;44.660;37.758;2023-03-20T03:57:12;9.82;77.98
75985;DHT22;65033;44.660;37.758;2023-03-20T03:58:19;9.84;77.96
75985;DHT22;65033;44.660;37.758;2023-03-20T03:59:29;9.89;77.89
75985;DHT22;65033;44.660;37.758;2023-03-20T04:00:36;9.93;77.79
75985;DHT22;65033;44.660;37.758;2023-03-20T04:01:43;9.97;77.35
75985;DHT22;65033;44.660;37.758;2023-03-20T04:02:52;9.99;77.24
75985;DHT22;65033;44.660;37.758;2023-03-20T04:04:15;10.01;77.16
75985;DHT22;65033;44.660;37.758;2023-03-20T04:05:18;10.03;77.24
75985;DHT22;65033;44.660;37.758;2023-03-20T04:06:24;10.03;76.89
75985;DHT22;65033;44.660;37.758;2023-03-20T04:07:31;10.03;76.91
75985;DHT22;65033;44.660;37.758;2023-03-20T04:08:34;10.06;76.89
75985;DHT22;65033;44.660;37.758;2023-03-20T04:09:38;10.09;76.62
75985;DHT22;65033;44.660;37.758;2023-03-20T04:10:42;10.09;76.62
75985;DHT22;65033;44.660;37.758;2023-03-20T04:11:48;10.09;76.40
75985;DHT22;65033;44.660;37.758;2023-03-20T04:12:52;10.08;76.40
75985;DHT22;65033;44.660;37.758;2023-03-20T04:13:55;10.09;76.36
75985;DHT22;65033;44.660;37.758;2023-03-20T04:14:58;10.11;76.37
75985;DHT22;65033;44.660;37.758;2023-03-20T04:16:05;10.13;76.26
75985;DHT22;65033;44.660;37.758;2023-03-20T04:17:09;11.26;95.66
75985;DHT22;65033;44.660;37.758;2023-03-20T04:18:16;12.26;102.89
75985;DHT22;65033;44.660;37.758;2023-03-20T04:19:21;12.29;75.25
75985;DHT22;65033;44.660;37.758;2023-03-20T04:20:25;12.28;68.98
75985;DHT22;65033;44.660;37.758;2023-03-20T04:21:28;12.13;68.46
75985;DHT22;65033;44.660;37.758;2023-03-20T04:22:31;11.99;68.71
75985;DHT22;65033;44.660;37.758;2023-03-20T04:23:42;11.86;69.01
75985;DHT22;65033;44.660;37.758;2023-03-20T04:24:45;11.61;69.63
75985;DHT22;65033;44.660;37.758;2023-03-20T04:25:50;11.46;70.40
75985;DHT22;65033;44.660;37.758;2023-03-20T04:26:53;11.33;70.79
75985;DHT22;65033;44.660;37.758;2023-03-20T04:27:57;11.25;71.07
75985;DHT22;65033;44.660;37.758;2023-03-20T04:29:15;11.12;71.58
75985;DHT22;65033;44.660;37.758;2023-03-20T04:30:29;11.03;71.96
75985;DHT22;65033;44.660;37.758;2023-03-20T04:31:48;10.97;72.25
75985;DHT22;65033;44.660;37.758;2023-03-20T04:33:11;10.97;72.29
75985;DHT22;65033;44.660;37.758;2023-03-20T04:34:33;10.93;72.63
75985;DHT22;65033;44.660;37.758;2023-03-20T04:36:00;10.85;73.16
75985;DHT22;65033;44.660;37.758;2023-03-20T04:37:04;10.79;73.48
75985;DHT22;65033;44.660;37.758;2023-03-20T04:38:33;10.71;73.86
75985;DHT22;65033;44.660;37.758;2023-03-20T04:39:37;10.71;73.96
75985;DHT22;65033;44.660;37.758;2023-03-20T04:40:40;10.68;74.01
75985;DHT22;65033;44.660;37.758;2023-03-20T04:41:45;10.64;73.94
75985;DHT22;65033;44.660;37.758;2023-03-20T04:42:49;10.58;74.25
75985;DHT22;65033;44.660;37.758;2023-03-20T04:43:52;10.52;74.60
75985;DHT22;65033;44.660;37.758;2023-03-20T04:44:56;10.46;74.86
75985;DHT22;65033;44.660;37.758;2023-03-20T04:46:00;10.44;75.07
75985;DHT22;65033;44.660;37.758;2023-03-20T04:47:03;10.46;74.82
75985;DHT22;65033;44.660;37.758;2023-03-20T04:48:09;10.46;74.76
75985;DHT22;65033;44.660;37.758;2023-03-20T04:49:12;10.52;74.69
75985;DHT22;65033;44.660;37.758;2023-03-20T04:50:16;10.55;74.38
75985;DHT22;65033;44.660;37.758;2023-03-20T04:51:20;10.54;74.70
75985;DHT22;65033;44.660;37.758;2023-03-20T04:52:33;10.52;74.85
75985;DHT22;65033;44.660;37.758;2023-03-20T04:53:37;10.52;75.05
75985;DHT22;65033;44.660;37.758;2023-03-20T04:54:40;10.53;74.66
75985;DHT22;65033;44.660;37.758;2023-03-20T04:55:44;10.56;74.57
75985;DHT22;65033;44.660;37.758;2023-03-20T04:56:49;10.62;74.47
75985;DHT22;65033;44.660;37.758;2023-03-20T04:57:55;11.43;93.75
75985;DHT22;65033;44.660;37.758;2023-03-20T04:59:00;12.35;94.60
75985;DHT22;65033;44.660;37.758;2023-03-20T05:00:04;12.91;84.20
75985;DHT22;65033;44.660;37.758;2023-03-20T05:01:08;12.94;67.78
75985;DHT22;65033;44.660;37.758;2023-03-20T05:02:14;12.58;67.12
75985;DHT22;65033;44.660;37.758;2023-03-20T05:03:19;12.34;67.72
75985;DHT22;65033;44.660;37.758;2023-03-20T05:04:25;12.19;67.94
75985;DHT22;65033;44.660;37.758;2023-03-20T05:05:29;12.08;68.27
75985;DHT22;65033;44.660;37.758;2023-03-20T05:06:33;11.96;68.71
75985;DHT22;65033;44.660;37.758;2023-03-20T05:07:37;11.67;69.69
75985;DHT22;65033;44.660;37.758;2023-03-20T05:08:45;11.56;70.25
75985;DHT22;65033;44.660;37.758;2023-03-20T05:09:48;11.44;70.73
75985;DHT22;65033;44.660;37.758;2023-03-20T05:10:52;11.25;71.66
75985;DHT22;65033;44.660;37.758;2023-03-20T05:12:28;11.18;72.17
75985;DHT22;65033;44.660;37.758;2023-03-20T05:14:02;11.19;72.22
75985;DHT22;65033;44.660;37.758;2023-03-20T05:15:13;11.20;72.60
75985;DHT22;65033;44.660;37.758;2023-03-20T05:16:16;11.24;72.31
75985;DHT22;65033;44.660;37.758;2023-03-20T05:17:42;11.27;72.03
75985;DHT22;65033;44.660;37.758;2023-03-20T05:19:13;11.30;71.83
75985;DHT22;65033;44.660;37.758;2023-03-20T05:20:23;11.30;71.83
75985;DHT22;65033;44.660;37.758;2023-03-20T05:21:38;11.20;72.01
75985;DHT22;65033;44.660;37.758;2023-03-20T05:22:52;11.43;79.85
75985;DHT22;65033;44.660;37.758;2023-03-20T05:24:13;12.11;80.36
75985;DHT22;65033;44.660;37.758;2023-03-20T05:25:23;12.01;68.98
75985;DHT22;65033;44.660;37.758;2023-03-20T05:26:55;11.90;69.27
75985;DHT22;65033;44.660;37.758;2023-03-20T05:28:20;11.84;69.20
75985;DHT22;65033;44.660;37.758;2023-03-20T05:29:32;11.62;69.76
75985;DHT22;65033;44.660;37.758;2023-03-20T05:31:11;11.43;70.70
75985;DHT22;65033;44.660;37.758;2023-03-20T05:32:38;11.28;71.40
75985;DHT22;65033;44.660;37.758;2023-03-20T05:33:56;11.27;71.65
75985;DHT22;65033;44.660;37.758;2023-03-20T05:35:11;11.28;71.57
75985;DHT22;65033;44.660;37.758;2023-03-20T05:36:24;11.33;71.39
75985;DHT22;65033;44.660;37.758;2023-03-20T05:37:50;11.33;71.27
75985;DHT22;65033;44.660;37.758;2023-03-20T05:39:16;11.18;71.69
75985;DHT22;65033;44.660;37.758;2023-03-20T05:40:56;11.08;72.30
75985;DHT22;65033;44.660;37.758;2023-03-20T05:42:09;11.10;72.35
75985;DHT22;65033;44.660;37.758;2023-03-20T05:43:34;11.09;72.13
75985;DHT22;65033;44.660;37.758;2023-03-20T05:44:54;10.99;72.54
75985;DHT22;65033;44.660;37.758;2023-03-20T05:46:21;10.89;72.99
75985;DHT22;65033;44.660;37.758;2023-03-20T05:47:51;10.88;72.88
75985;DHT22;65033;44.660;37.758;2023-03-20T05:48:57;10.93;72.85
75985;DHT22;65033;44.660;37.758;2023-03-20T05:50:16;10.97;72.32
75985;DHT22;65033;44.660;37.758;2023-03-20T05:51:38;10.92;72.77
75985;DHT22;65033;44.660;37.758;2023-03-20T05:52:49;10.97;72.75
75985;DHT22;65033;44.660;37.758;2023-03-20T05:54:00;11.16;81.47
75985;DHT22;65033;44.660;37.758;2023-03-20T05:55:38;12.50;89.04
75985;DHT22;65033;44.660;37.758;2023-03-20T05:57:01;12.56;67.51
75985;DHT22;65033;44.660;37.758;2023-03-20T05:58:25;12.52;66.86
75985;DHT22;65033;44.660;37.758;2023-03-20T05:59:50;12.48;66.88
75985;DHT22;65033;44.660;37.758;2023-03-20T06:01:13;12.38;67.33
75985;DHT22;65033;44.660;37.758;2023-03-20T06:02:42;12.33;67.46
75985;DHT22;65033;44.660;37.758;2023-03-20T06:04:08;12.31;67.30
75985;DHT22;65033;44.660;37.758;2023-03-20T06:05:31;12.29;67.55
75985;DHT22;65033;44.660;37.758;2023-03-20T06:06:36;12.29;67.21
75985;DHT22;65033;44.660;37.758;2023-03-20T06:07:40;12.28;67.26
75985;DHT22;65033;44.660;37.758;2023-03-20T06:08:47;12.30;67.23
75985;DHT22;65033;44.660;37.758;2023-03-20T06:09:51;12.31;67.13
75985;DHT22;65033;44.660;37.758;2023-03-20T06:10:54;12.31;67.20
75985;DHT22;65033;44.660;37.758;2023-03-20T06:11:58;12.34;67.35
75985;DHT22;65033;44.660;37.758;2023-03-20T06:13:01;12.34;67.43
75985;DHT22;65033;44.660;37.758;2023-03-20T06:14:05;12.27;67.29
75985;DHT22;65033;44.660;37.758;2023-03-20T06:15:14;12.16;67.84
75985;DHT22;65033;44.660;37.758;2023-03-20T06:16:24;12.18;67.79
75985;DHT22;65033;44.660;37.758;2023-03-20T06:17:28;12.19;67.67
75985;DHT22;65033;44.660;37.758;2023-03-20T06:18:36;12.25;67.62
75985;DHT22;65033;44.660;37.758;2023-03-20T06:19:42;12.19;67.96
75985;DHT22;65033;44.660;37.758;2023-03-20T06:20:46;12.26;67.70
75985;DHT22;65033;44.660;37.758;2023-03-20T06:21:54;12.30;67.50
75985;DHT22;65033;44.660;37.758;2023-03-20T06:22:57;12.35;67.19
75985;DHT22;65033;44.660;37.758;2023-03-20T06:24:03;12.34;67.34
75985;DHT22;65033;44.660;37.758;2023-03-20T06:25:08;12.38;67.17
75985;DHT22;65033;44.660;37.758;2023-03-20T06:26:16;12.41;67.10
75985;DHT22;65033;44.660;37.758;2023-03-20T06:27:31;12.41;66.97
75985;DHT22;65033;44.660;37.758;2023-03-20T06:28:35;12.36;67.52
75985;DHT22;65033;44.660;37.758;2023-03-20T06:29:42;12.35;67.65
75985;DHT22;65033;44.660;37.758;2023-03-20T06:30:52;12.33;67.75
75985;DHT22;65033;44.660;37.758;2023-03-20T06:31:57;12.37;67.74
75985;DHT22;65033;44.660;37.758;2023-03-20T06:33:05;12.43;67.71
75985;DHT22;65033;44.660;37.758;2023-03-20T06:34:26;12.47;67.51
75985;DHT22;65033;44.660;37.758;2023-03-20T06:35:31;12.51;67.80
75985;DHT22;65033;44.660;37.758;2023-03-20T06:36:36;12.58;66.97
75985;DHT22;65033;44.660;37.758;2023-03-20T06:37:45;12.63;66.69
75985;DHT22;65033;44.660;37.758;2023-03-20T06:38:55;12.71;66.82
75985;DHT22;65033;44.660;37.758;2023-03-20T06:40:00;12.80;66.64
75985;DHT22;65033;44.660;37.758;2023-03-20T06:41:11;12.87;66.18
75985;DHT22;65033;44.660;37.758;2023-03-20T06:42:23;12.90;65.91
75985;DHT22;65033;44.660;37.758;2023-03-20T06:43:27;13.30;81.52
75985;DHT22;65033;44.660;37.758;2023-03-20T06:44:30;14.21;84.11
75985;DHT22;65033;44.660;37.758;2023-03-20T06:45:43;14.41;62.37
75985;DHT22;65033;44.660;37.758;2023-03-20T06:46:58;14.41;61.57
75985;DHT22;65033;44.660;37.758;2023-03-20T06:48:12;14.41;61.41
75985;DHT22;65033;44.660;37.758;2023-03-20T06:49:15;14.38;60.81
75985;DHT22;65033;44.660;37.758;2023-03-20T06:50:19;14.30;61.22
75985;DHT22;65033;44.660;37.758;2023-03-20T06:51:25;14.24;61.28
75985;DHT22;65033;44.660;37.758;2023-03-20T06:52:29;14.17;61.09
75985;DHT22;65033;44.660;37.758;2023-03-20T06:54:01;13.97;61.68
75985;DHT22;65033;44.660;37.758;2023-03-20T06:55:06;13.90;62.16
75985;DHT22;65033;44.660;37.758;2023-03-20T06:56:09;13.83;62.61
75985;DHT22;65033;44.660;37.758;2023-03-20T06:57:15;13.81;62.79
75985;DHT22;65033;44.660;37.758;2023-03-20T06:58:19;13.81;62.79
75985;DHT22;65033;44.660;37.758;2023-03-20T06:59:25;13.78;62.50
75985;DHT22;65033;44.660;37.758;2023-03-20T07:00:32;13.73;62.60
75985;DHT22;65033;44.660;37.758;2023-03-20T07:01:39;13.73;62.79
75985;DHT22;65033;44.660;37.758;2023-03-20T07:02:45;13.75;63.17
75985;DHT22;65033;44.660;37.758;2023-03-20T07:03:50;13.79;63.31
75985;DHT22;65033;44.660;37.758;2023-03-20T07:04:58;13.80;62.94
75985;DHT22;65033;44.660;37.758;2023-03-20T07:06:03;13.84;62.95
75985;DHT22;65033;44.660;37.758;2023-03-20T07:07:06;13.89;62.65
75985;DHT22;65033;44.660;37.758;2023-03-20T07:08:10;13.83;62.63
75985;DHT22;65033;44.660;37.758;2023-03-20T07:09:13;13.82;62.92
75985;DHT22;65033;44.660;37.758;2023-03-20T07:10:18;13.83;62.98
75985;DHT22;65033;44.660;37.758;2023-03-20T07:11:25;13.88;62.70
75985;DHT22;65033;44.660;37.758;2023-03-20T07:12:30;13.85;62.53
75985;DHT22;65033;44.660;37.758;2023-03-20T07:13:35;13.80;62.55
75985;DHT22;65033;44.660;37.758;2023-03-20T07:14:52;13.82;62.73
75985;DHT22;65033;44.660;37.758;2023-03-20T07:15:55;13.78;62.85
75985;DHT22;65033;44.660;37.758;2023-03-20T07:17:12;13.83;62.86
75985;DHT22;65033;44.660;37.758;2023-03-20T07:18:17;13.95;62.77
75985;DHT22;65033;44.660;37.758;2023-03-20T07:19:21;13.96;62.17
75985;DHT22;65033;44.660;37.758;2023-03-20T07:20:29;13.99;62.15
75985;DHT22;65033;44.660;37.758;2023-03-20T07:21:34;13.98;62.00
75985;DHT22;65033;44.660;37.758;2023-03-20T07:22:37;14.01;62.28